Time;durP1;ratioP1;P1;durP2;ratioP2;P2;SDS_P1;SDS_P2;PMS_P1;PMS_P2;Temp;Humidity;BMP_temperature;BMP_pressure;BME280_temperature;BME280_humidity;BME280_pressure;Samples;Min_cycle;Max_cycle;Signal;HPM_P1;HPM_P2
2022/05/04 00:01:33;;;;;;;;;;;13.00;48.80;;;;;;5055247;28;19925;-86
2022/05/04 00:03:59;;;;;;;;;;;12.90;49.00;;;;;;5073316;28;19916;-86
2022/05/04 00:06:26;;;;;;;;;;;12.80;49.50;;;;;;5065895;28;20334;-86
2022/05/04 00:08:52;;;;;;;;;;;12.80;49.40;;;;;;5057225;28;19923;-86
2022/05/04 00:11:17;;;;;;;;;;;12.80;49.50;;;;;;5072919;28;19916;-87
2022/05/04 00:13:42;;;;;;;;;;;12.80;49.80;;;;;;5060497;28;20003;-86
2022/05/04 00:16:08;;;;;;;;;;;12.80;50.10;;;;;;5057999;28;19916;-85
2022/05/04 00:18:33;;;;;;;;;;;12.70;50.00;;;;;;5072592;28;19927;-86
2022/05/04 00:20:59;;;;;;;;;;;12.70;50.10;;;;;;5047596;28;19917;-86
2022/05/04 00:23:25;;;;;;;;;;;12.70;50.30;;;;;;5071036;28;19968;-86
2022/05/04 00:25:50;;;;;;;;;;;12.70;50.40;;;;;;5056080;28;19967;-85
2022/05/04 00:28:16;;;;;;;;;;;12.60;50.60;;;;;;5058311;28;20348;-85
2022/05/04 00:30:41;;;;;;;;;;;12.60;50.70;;;;;;5061240;28;19917;-85
2022/05/04 00:33:07;;;;;;;;;;;12.60;50.50;;;;;;5065139;28;19919;-86
2022/05/04 00:35:36;;;;;;;;;;;12.50;50.30;;;;;;5072556;28;20387;-86
2022/05/04 00:38:01;;;;;;;;;;;12.50;50.10;;;;;;5061398;28;20375;-86
2022/05/04 00:40:27;;;;;;;;;;;12.50;50.40;;;;;;5064366;28;19916;-87
2022/05/04 00:42:52;;;;;;;;;;;12.40;50.30;;;;;;5073624;28;20011;-86
2022/05/04 00:45:18;;;;;;;;;;;12.40;50.60;;;;;;5055615;28;20290;-86
2022/05/04 00:47:43;;;;;;;;;;;12.40;50.60;;;;;;5065880;28;19912;-86
2022/05/04 00:50:09;;;;;;;;;;;12.40;50.50;;;;;;5048166;28;20316;-87
2022/05/04 00:52:36;;;;;;;;;;;12.40;50.40;;;;;;5061705;28;19982;-86
2022/05/04 00:55:02;;;;;;;;;;;12.30;50.10;;;;;;5072403;28;19924;-85
2022/05/04 01:00:13;;;;;;;;;;;12.30;50.10;;;;;;5070723;28;19931;-86
2022/05/04 01:02:39;;;;;;;;;;;12.20;50.20;;;;;;5066619;28;19917;-87
2022/05/04 01:05:09;;;;;;;;;;;12.20;50.30;;;;;;5066790;28;19972;-86
2022/05/04 01:07:44;;;;;;;;;;;12.10;50.60;;;;;;5054879;28;19916;-87
2022/05/04 01:10:11;;;;;;;;;;;12.20;50.90;;;;;;5071093;28;19923;-87
2022/05/04 01:12:44;;;;;;;;;;;12.20;50.80;;;;;;5048704;28;19919;-87
2022/05/04 01:15:10;;;;;;;;;;;12.10;51.00;;;;;;5073688;28;19917;-87
2022/05/04 01:17:35;;;;;;;;;;;12.10;51.10;;;;;;5055078;28;19920;-86
2022/05/04 01:20:01;;;;;;;;;;;12.10;51.00;;;;;;5064828;28;20249;-85
2022/05/04 01:22:26;;;;;;;;;;;12.10;50.70;;;;;;5071512;28;20288;-86
2022/05/04 01:24:52;;;;;;;;;;;12.10;50.70;;;;;;5054825;28;19921;-86
2022/05/04 01:27:18;;;;;;;;;;;12.10;50.80;;;;;;5068333;28;19917;-87
2022/05/04 01:29:43;;;;;;;;;;;12.00;50.80;;;;;;5072607;28;19923;-86
2022/05/04 01:32:09;;;;;;;;;;;12.10;50.60;;;;;;5060741;28;19912;-87
2022/05/04 01:34:34;;;;;;;;;;;12.00;50.50;;;;;;5059922;28;20386;-86
2022/05/04 01:37:00;;;;;;;;;;;12.00;50.30;;;;;;5067835;28;20429;-87
2022/05/04 01:39:26;;;;;;;;;;;12.00;50.50;;;;;;5072337;28;19922;-86
2022/05/04 01:42:03;;;;;;;;;;;12.00;50.50;;;;;;5071478;28;20383;-87
2022/05/04 01:44:30;;;;;;;;;;;12.00;50.50;;;;;;5072730;28;19920;-86
2022/05/04 01:46:55;;;;;;;;;;;11.90;50.80;;;;;;5059060;28;20677;-86
2022/05/04 01:49:21;;;;;;;;;;;11.90;50.80;;;;;;5066388;28;20003;-86
2022/05/04 01:51:46;;;;;;;;;;;11.80;51.00;;;;;;5064808;28;20425;-86
2022/05/04 01:54:12;;;;;;;;;;;11.80;51.00;;;;;;5051562;28;20021;-86
2022/05/04 01:56:37;;;;;;;;;;;11.80;50.80;;;;;;5064175;28;19913;-86
2022/05/04 01:59:03;;;;;;;;;;;11.80;51.00;;;;;;5060107;28;19917;-87
2022/05/04 02:01:28;;;;;;;;;;;11.80;50.90;;;;;;5059318;28;19916;-87
2022/05/04 02:03:55;;;;;;;;;;;11.70;50.90;;;;;;5067676;28;19916;-86
2022/05/04 02:06:21;;;;;;;;;;;11.70;50.90;;;;;;5069388;28;19931;-86
2022/05/04 02:08:46;;;;;;;;;;;11.70;50.90;;;;;;5068350;28;20344;-86
2022/05/04 02:11:12;;;;;;;;;;;11.70;51.00;;;;;;5055237;28;20360;-86
2022/05/04 02:13:37;;;;;;;;;;;11.60;50.80;;;;;;5072520;28;19913;-86
2022/05/04 02:16:05;;;;;;;;;;;11.60;50.90;;;;;;5072746;28;19916;-86
2022/05/04 02:18:30;;;;;;;;;;;11.50;51.00;;;;;;5072878;28;19912;-86
2022/05/04 02:20:56;;;;;;;;;;;11.50;50.70;;;;;;5063579;28;19924;-86
2022/05/04 02:23:21;;;;;;;;;;;11.50;50.60;;;;;;5051514;28;19933;-86
2022/05/04 02:25:47;;;;;;;;;;;11.40;50.50;;;;;;5054129;28;19971;-85
2022/05/04 02:28:13;;;;;;;;;;;11.40;50.40;;;;;;5064941;28;19978;-86
2022/05/04 02:30:38;;;;;;;;;;;11.30;50.20;;;;;;5059771;28;19955;-87
2022/05/04 02:33:04;;;;;;;;;;;11.30;50.30;;;;;;5056501;28;19917;-85
2022/05/04 02:38:13;;;;;;;;;;;11.20;50.30;;;;;;5072999;28;19926;-85
2022/05/04 02:40:39;;;;;;;;;;;11.20;50.30;;;;;;5067104;28;19924;-86
2022/05/04 02:43:06;;;;;;;;;;;11.20;50.40;;;;;;5074525;28;19925;-86
2022/05/04 02:45:31;;;;;;;;;;;11.10;50.20;;;;;;5075794;28;20352;-86
2022/05/04 02:47:57;;;;;;;;;;;11.10;50.10;;;;;;5075727;28;19919;-85
2022/05/04 02:50:22;;;;;;;;;;;11.00;50.20;;;;;;5076493;28;20323;-85
2022/05/04 02:52:48;;;;;;;;;;;11.00;50.30;;;;;;5057583;28;19974;-85
2022/05/04 02:55:13;;;;;;;;;;;11.00;50.20;;;;;;5076664;28;19976;-86
2022/05/04 02:57:39;;;;;;;;;;;10.90;50.10;;;;;;5075178;28;19912;-85
2022/05/04 03:00:05;;;;;;;;;;;10.90;50.00;;;;;;5075081;28;19920;-86
2022/05/04 03:02:31;;;;;;;;;;;10.90;49.90;;;;;;5056750;28;19920;-86
2022/05/04 03:04:58;;;;;;;;;;;10.80;49.90;;;;;;5057380;28;20374;-86
2022/05/04 03:07:24;;;;;;;;;;;10.80;49.90;;;;;;5075150;28;19912;-85
2022/05/04 03:09:49;;;;;;;;;;;10.70;49.90;;;;;;5057036;28;19917;-86
2022/05/04 03:12:15;;;;;;;;;;;10.70;49.80;;;;;;5075112;28;20398;-86
2022/05/04 03:14:40;;;;;;;;;;;10.70;49.80;;;;;;5076595;28;19916;-86
2022/05/04 03:17:06;;;;;;;;;;;10.60;49.80;;;;;;5076829;28;19919;-86
2022/05/04 03:19:31;;;;;;;;;;;10.60;49.80;;;;;;5076576;28;20427;-86
2022/05/04 03:21:57;;;;;;;;;;;10.50;49.70;;;;;;5058534;28;19916;-86
2022/05/04 03:24:22;;;;;;;;;;;10.50;50.10;;;;;;5075224;28;19925;-86
2022/05/04 03:26:48;;;;;;;;;;;10.50;50.00;;;;;;5076378;28;20003;-86
2022/05/04 03:29:13;;;;;;;;;;;10.40;50.00;;;;;;5076276;28;19962;-86
2022/05/04 03:31:39;;;;;;;;;;;10.40;50.10;;;;;;5076618;28;19908;-86
2022/05/04 03:34:05;;;;;;;;;;;10.40;50.20;;;;;;5075867;28;20352;-85
2022/05/04 03:36:30;;;;;;;;;;;10.40;50.20;;;;;;5075117;28;19913;-86
2022/05/04 03:38:56;;;;;;;;;;;10.40;50.20;;;;;;5057719;28;19908;-85
2022/05/04 03:41:22;;;;;;;;;;;10.30;50.30;;;;;;5057820;28;19920;-86
2022/05/04 03:43:47;;;;;;;;;;;10.30;50.30;;;;;;5058251;28;19920;-86
2022/05/04 03:46:23;;;;;;;;;;;10.40;50.20;;;;;;5058223;28;20316;-86
2022/05/04 03:48:51;;;;;;;;;;;10.40;50.20;;;;;;5057149;28;20007;-87
2022/05/04 03:51:20;;;;;;;;;;;10.30;50.20;;;;;;5057417;28;20013;-85
2022/05/04 03:53:49;;;;;;;;;;;10.30;50.20;;;;;;5064800;28;19920;-86
2022/05/04 03:56:14;;;;;;;;;;;10.30;50.30;;;;;;5057191;28;19923;-86
2022/05/04 03:58:40;;;;;;;;;;;10.30;50.20;;;;;;5057177;28;20372;-86
2022/05/04 04:01:06;;;;;;;;;;;10.30;50.30;;;;;;5075274;28;19999;-87
2022/05/04 04:03:31;;;;;;;;;;;10.30;50.30;;;;;;5056624;28;19924;-86
2022/05/04 04:05:57;;;;;;;;;;;10.30;50.30;;;;;;5057900;28;19970;-86
2022/05/04 04:08:23;;;;;;;;;;;10.30;50.30;;;;;;5073993;28;19917;-86
2022/05/04 04:10:49;;;;;;;;;;;10.30;50.30;;;;;;5045837;28;19996;-87
2022/05/04 04:13:15;;;;;;;;;;;10.30;50.40;;;;;;5070418;28;19932;-86
2022/05/04 04:15:41;;;;;;;;;;;10.40;50.50;;;;;;5088026;28;20015;-87
2022/05/04 04:18:06;;;;;;;;;;;10.40;50.60;;;;;;5076694;28;19960;-87
2022/05/04 04:23:16;;;;;;;;;;;10.60;50.70;;;;;;5075032;28;19928;-86
2022/05/04 04:25:42;;;;;;;;;;;10.60;50.80;;;;;;5056749;28;19913;-86
2022/05/04 04:28:09;;;;;;;;;;;10.70;51.00;;;;;;5057058;28;19959;-87
2022/05/04 04:30:36;;;;;;;;;;;10.80;51.10;;;;;;5057472;28;19920;-87
2022/05/04 04:33:02;;;;;;;;;;;11.00;51.10;;;;;;5074593;28;19916;-86
2022/05/04 04:35:27;;;;;;;;;;;11.00;50.90;;;;;;5057306;28;20394;-86
2022/05/04 04:37:53;;;;;;;;;;;11.00;50.90;;;;;;5074503;28;20387;-87
2022/05/04 04:40:18;;;;;;;;;;;11.10;51.10;;;;;;5073683;28;20017;-86
2022/05/04 04:42:43;;;;;;;;;;;11.30;51.40;;;;;;5055713;28;19921;-87
2022/05/04 04:45:09;;;;;;;;;;;11.40;51.80;;;;;;5073846;28;19923;-87
2022/05/04 04:47:36;;;;;;;;;;;11.60;52.20;;;;;;5053098;28;20015;-86
2022/05/04 04:50:01;;;;;;;;;;;11.80;52.50;;;;;;5075760;28;19919;-86
2022/05/04 04:52:27;;;;;;;;;;;12.10;52.70;;;;;;5063269;28;19971;-87
2022/05/04 04:54:52;;;;;;;;;;;12.40;52.90;;;;;;5070284;28;19919;-88
2022/05/04 04:57:18;;;;;;;;;;;12.70;52.90;;;;;;5075050;28;19962;-86
2022/05/04 04:59:43;;;;;;;;;;;13.00;52.70;;;;;;5069549;28;19913;-87
2022/05/04 05:02:09;;;;;;;;;;;13.40;52.50;;;;;;5063587;28;19925;-87
2022/05/04 05:04:35;;;;;;;;;;;13.70;52.00;;;;;;5073939;28;19917;-87
2022/05/04 05:07:00;;;;;;;;;;;13.90;51.30;;;;;;5075072;28;19916;-87
2022/05/04 05:09:25;;;;;;;;;;;14.00;50.80;;;;;;5067860;28;19919;-88
2022/05/04 05:11:51;;;;;;;;;;;14.10;50.50;;;;;;5071814;28;20271;-88
2022/05/04 05:17:01;;;;;;;;;;;14.50;50.90;;;;;;5074094;28;20287;-87
2022/05/04 05:19:26;;;;;;;;;;;14.90;51.50;;;;;;5070455;28;19913;-87
2022/05/04 05:21:52;;;;;;;;;;;15.40;51.70;;;;;;5071720;28;19942;-87
2022/05/04 05:24:17;;;;;;;;;;;15.80;51.30;;;;;;5074882;28;20255;-87
2022/05/04 05:26:43;;;;;;;;;;;16.30;50.80;;;;;;5062394;28;19948;-87
2022/05/04 05:29:08;;;;;;;;;;;16.70;49.60;;;;;;5074070;28;19912;-88
2022/05/04 05:31:34;;;;;;;;;;;16.90;48.60;;;;;;5070952;28;20002;-87
2022/05/04 05:33:59;;;;;;;;;;;17.20;48.00;;;;;;5073729;28;19913;-87
2022/05/04 05:36:25;;;;;;;;;;;17.40;47.30;;;;;;5058856;28;19948;-87
2022/05/04 05:38:50;;;;;;;;;;;17.50;46.60;;;;;;5061936;28;19924;-88
2022/05/04 05:41:15;;;;;;;;;;;17.70;45.90;;;;;;5065664;28;19912;-88
2022/05/04 05:43:41;;;;;;;;;;;17.70;44.80;;;;;;5063203;28;20326;-88
2022/05/04 05:46:06;;;;;;;;;;;17.70;44.30;;;;;;5073249;28;20003;-88
2022/05/04 05:48:32;;;;;;;;;;;17.50;43.70;;;;;;5070013;28;20355;-86
2022/05/04 05:50:58;;;;;;;;;;;17.50;43.50;;;;;;5073882;28;19913;-88
2022/05/04 05:53:23;;;;;;;;;;;17.30;42.80;;;;;;5067113;28;19917;-87
2022/05/04 05:55:49;;;;;;;;;;;17.30;43.00;;;;;;5050232;28;19955;-87
2022/05/04 05:58:15;;;;;;;;;;;17.30;43.10;;;;;;5073568;28;20359;-87
2022/05/04 06:00:40;;;;;;;;;;;17.40;43.10;;;;;;5062153;28;19923;-87
2022/05/04 06:03:06;;;;;;;;;;;17.40;43.00;;;;;;5065285;28;19931;-87
2022/05/04 06:05:31;;;;;;;;;;;17.60;43.30;;;;;;5061067;28;19913;-87
2022/05/04 06:07:57;;;;;;;;;;;18.00;44.00;;;;;;5059157;28;20400;-87
2022/05/04 06:10:22;;;;;;;;;;;18.30;43.50;;;;;;5063571;28;19923;-87
2022/05/04 06:12:48;;;;;;;;;;;18.60;42.50;;;;;;5067333;28;19924;-87
2022/05/04 06:15:14;;;;;;;;;;;18.70;41.70;;;;;;5064503;28;19920;-88
2022/05/04 06:17:41;;;;;;;;;;;18.80;40.70;;;;;;5076762;28;19927;-88
2022/05/04 06:20:07;;;;;;;;;;;18.80;40.60;;;;;;5063013;28;20758;-87
2022/05/04 06:22:32;;;;;;;;;;;18.80;40.00;;;;;;5068536;28;19992;-89
2022/05/04 06:24:58;;;;;;;;;;;18.90;40.40;;;;;;5069999;28;19912;-88
2022/05/04 06:27:23;;;;;;;;;;;19.30;41.00;;;;;;5065782;28;20287;-89
2022/05/04 06:35:30;;;;;;;;;;;20.90;40.30;;;;;;5031747;28;19912;-88
2022/05/04 06:37:56;;;;;;;;;;;21.60;39.20;;;;;;5078057;28;19920;-88
2022/05/04 06:40:21;;;;;;;;;;;22.10;38.40;;;;;;5063118;28;19908;-89
2022/05/04 06:42:47;;;;;;;;;;;22.60;37.40;;;;;;5069395;28;19942;-88
2022/05/04 06:45:12;;;;;;;;;;;23.10;35.40;;;;;;5074351;28;20417;-87
2022/05/04 06:47:38;;;;;;;;;;;23.50;34.30;;;;;;5062988;28;20433;-87
2022/05/04 06:50:04;;;;;;;;;;;23.80;32.80;;;;;;5064393;28;20535;-89
2022/05/04 06:52:30;;;;;;;;;;;24.20;32.80;;;;;;5066713;28;19919;-89
2022/05/04 06:54:55;;;;;;;;;;;24.50;31.90;;;;;;5070598;28;20391;-89
2022/05/04 06:57:21;;;;;;;;;;;24.70;31.60;;;;;;5054794;28;19917;-89
2022/05/04 06:59:47;;;;;;;;;;;24.90;31.00;;;;;;5060009;28;19916;-88
2022/05/04 07:02:12;;;;;;;;;;;25.30;30.10;;;;;;5075278;28;19920;-88
2022/05/04 07:04:38;;;;;;;;;;;25.50;29.10;;;;;;5075878;28;19938;-88
2022/05/04 07:07:04;;;;;;;;;;;25.70;28.70;;;;;;5075486;28;19975;-88
2022/05/04 07:09:29;;;;;;;;;;;25.90;28.50;;;;;;5062711;28;20011;-87
2022/05/04 07:11:55;;;;;;;;;;;26.20;28.70;;;;;;5075347;28;20372;-89
2022/05/04 07:14:20;;;;;;;;;;;26.40;27.70;;;;;;5048601;28;19920;-88
2022/05/04 07:16:47;;;;;;;;;;;26.70;28.00;;;;;;5065711;28;20008;-88
2022/05/04 07:19:13;;;;;;;;;;;27.10;27.50;;;;;;5075254;28;19924;-89
2022/05/04 07:21:39;;;;;;;;;;;27.30;26.80;;;;;;5057238;28;19917;-88
2022/05/04 07:24:05;;;;;;;;;;;27.50;25.70;;;;;;5057618;28;20392;-89
2022/05/04 07:26:31;;;;;;;;;;;27.60;25.60;;;;;;5058276;28;20058;-88
2022/05/04 07:28:56;;;;;;;;;;;27.80;25.40;;;;;;5076950;28;19951;-89
2022/05/04 07:31:22;;;;;;;;;;;27.80;25.30;;;;;;5062032;28;19923;-89
2022/05/04 07:33:48;;;;;;;;;;;27.90;25.20;;;;;;5076574;28;19920;-89
2022/05/04 07:36:13;;;;;;;;;;;28.00;25.10;;;;;;5075953;28;19999;-88
2022/05/04 07:38:39;;;;;;;;;;;27.90;24.50;;;;;;5076032;28;20267;-89
2022/05/04 07:43:49;;;;;;;;;;;28.00;24.50;;;;;;5076247;28;19931;-89
2022/05/04 07:46:14;;;;;;;;;;;28.20;24.00;;;;;;5072442;28;20376;-90
2022/05/04 07:48:39;;;;;;;;;;;28.30;23.90;;;;;;5074532;28;19920;-91
2022/05/04 07:51:05;;;;;;;;;;;28.50;24.10;;;;;;5075946;28;19893;-88
2022/05/04 07:53:30;;;;;;;;;;;28.70;23.90;;;;;;5061198;28;19916;-88
2022/05/04 07:55:56;;;;;;;;;;;28.90;23.90;;;;;;5075476;28;19934;-88
2022/05/04 07:58:21;;;;;;;;;;;29.10;22.90;;;;;;5067694;28;19923;-88
2022/05/04 08:06:15;;;;;;;;;;;29.10;23.00;;;;;;5074604;28;19923;-88
2022/05/04 08:08:41;;;;;;;;;;;29.00;22.90;;;;;;5074987;28;20352;-88
2022/05/04 08:11:06;;;;;;;;;;;29.00;23.00;;;;;;5074790;28;19916;-88
2022/05/04 08:13:32;;;;;;;;;;;29.00;23.20;;;;;;5074829;28;19916;-88
2022/05/04 08:15:57;;;;;;;;;;;29.20;22.80;;;;;;5066682;28;19919;-89
2022/05/04 08:18:25;;;;;;;;;;;29.30;22.50;;;;;;5056684;28;19924;-89
2022/05/04 08:20:50;;;;;;;;;;;29.30;22.80;;;;;;5058297;28;19998;-87
2022/05/04 08:23:16;;;;;;;;;;;29.50;22.70;;;;;;5057306;28;19928;-89
2022/05/04 08:25:42;;;;;;;;;;;29.80;22.40;;;;;;5061677;28;19975;-87
2022/05/04 08:28:07;;;;;;;;;;;29.80;22.20;;;;;;5074439;28;19923;-89
2022/05/04 08:30:33;;;;;;;;;;;30.00;22.10;;;;;;5068117;28;19959;-88
2022/05/04 08:32:59;;;;;;;;;;;30.20;22.20;;;;;;5069066;28;19913;-90
2022/05/04 08:35:24;;;;;;;;;;;30.40;22.30;;;;;;5065286;28;19956;-88
2022/05/04 08:37:50;;;;;;;;;;;30.80;22.10;;;;;;5057281;28;20295;-87
2022/05/04 08:40:15;;;;;;;;;;;31.20;21.80;;;;;;5075274;28;19916;-90
2022/05/04 08:42:42;;;;;;;;;;;31.50;21.40;;;;;;5073935;28;20007;-89
2022/05/04 08:45:10;;;;;;;;;;;31.80;20.50;;;;;;5071490;28;20012;-88
2022/05/04 08:47:37;;;;;;;;;;;31.80;20.30;;;;;;5074180;28;19919;-87
2022/05/04 08:50:06;;;;;;;;;;;32.00;20.10;;;;;;5063909;28;19943;-88
2022/05/04 08:52:32;;;;;;;;;;;32.10;19.90;;;;;;5074917;28;19912;-88
2022/05/04 08:54:57;;;;;;;;;;;32.20;20.10;;;;;;5071127;28;19939;-88
2022/05/04 08:57:23;;;;;;;;;;;32.40;19.90;;;;;;5058644;28;19964;-88
2022/05/04 08:59:48;;;;;;;;;;;32.50;19.70;;;;;;5074727;28;19916;-89
2022/05/04 09:02:14;;;;;;;;;;;32.70;20.20;;;;;;5074333;28;20256;-89
2022/05/04 09:04:42;;;;;;;;;;;33.20;20.50;;;;;;5075093;28;19916;-88
2022/05/04 09:07:19;;;;;;;;;;;33.70;20.00;;;;;;5062147;28;19929;-88
2022/05/04 09:09:44;;;;;;;;;;;34.10;19.70;;;;;;5075211;28;20426;-88
2022/05/04 09:12:14;;;;;;;;;;;34.30;18.70;;;;;;5074671;28;19916;-88
2022/05/04 09:14:40;;;;;;;;;;;34.20;18.60;;;;;;5058784;28;19922;-89
2022/05/04 09:17:08;;;;;;;;;;;34.30;18.30;;;;;;5056922;28;19916;-89
2022/05/04 09:19:34;;;;;;;;;;;34.20;18.30;;;;;;5056819;28;19920;-88
2022/05/04 09:21:59;;;;;;;;;;;34.30;18.50;;;;;;5074543;28;19920;-88
2022/05/04 09:24:26;;;;;;;;;;;34.50;18.30;;;;;;5069913;28;20228;-87
2022/05/04 09:26:53;;;;;;;;;;;34.50;18.00;;;;;;5062181;28;20206;-88
2022/05/04 09:29:18;;;;;;;;;;;34.50;18.00;;;;;;5074532;28;19917;-89
2022/05/04 09:31:47;;;;;;;;;;;34.50;18.00;;;;;;5069101;28;19976;-88
2022/05/04 09:34:13;;;;;;;;;;;34.60;18.10;;;;;;5052091;28;20015;-86
2022/05/04 09:44:53;;;;;;;;;;;34.60;17.90;;;;;;5064090;28;19998;-88
2022/05/04 09:44:54;;;;;;;;;;;35.20;18.00;;;;;;5072915;28;19939;-88
2022/05/04 09:47:20;;;;;;;;;;;35.50;17.60;;;;;;5064981;28;19916;-87
2022/05/04 09:49:49;;;;;;;;;;;35.60;17.60;;;;;;5072656;28;19920;-88
2022/05/04 09:52:16;;;;;;;;;;;35.70;16.90;;;;;;5066240;28;20363;-88
2022/05/04 09:54:44;;;;;;;;;;;35.60;17.20;;;;;;5073461;28;20406;-89
2022/05/04 09:57:09;;;;;;;;;;;35.70;17.10;;;;;;5073553;28;19921;-88
2022/05/04 09:59:38;;;;;;;;;;;35.80;17.60;;;;;;5073535;28;20281;-87
2022/05/04 10:02:07;;;;;;;;;;;36.20;17.40;;;;;;5073475;28;20652;-88
2022/05/04 10:04:34;;;;;;;;;;;36.30;17.40;;;;;;5059126;28;20004;-89
2022/05/04 10:07:03;;;;;;;;;;;36.50;17.10;;;;;;5064328;28;19913;-89
2022/05/04 10:09:29;;;;;;;;;;;36.70;17.00;;;;;;5067463;28;19996;-89
2022/05/04 10:11:58;;;;;;;;;;;36.80;16.70;;;;;;5073278;28;19965;-89
2022/05/04 10:14:25;;;;;;;;;;;36.80;16.40;;;;;;5052336;28;20276;-89
2022/05/04 10:16:53;;;;;;;;;;;36.50;16.10;;;;;;5073537;28;20387;-88
2022/05/04 10:19:29;;;;;;;;;;;36.40;16.50;;;;;;5073831;28;19912;-89
2022/05/04 10:21:57;;;;;;;;;;;36.30;16.60;;;;;;5070554;28;19948;-89
2022/05/04 10:24:22;;;;;;;;;;;36.10;17.10;;;;;;5072886;28;20446;-89
2022/05/04 10:26:48;;;;;;;;;;;36.10;17.00;;;;;;5079645;28;20037;-89
2022/05/04 10:32:07;;;;;;;;;;;36.20;16.90;;;;;;5070215;28;19928;-88
2022/05/04 10:34:33;;;;;;;;;;;36.20;16.80;;;;;;5071834;28;19955;-88
2022/05/04 10:36:58;;;;;;;;;;;36.30;16.90;;;;;;5046020;28;20268;-87
2022/05/04 10:39:24;;;;;;;;;;;36.40;16.50;;;;;;5071925;28;19957;-87
2022/05/04 10:41:50;;;;;;;;;;;36.50;16.80;;;;;;5066739;28;21170;-87
2022/05/04 10:44:17;;;;;;;;;;;36.90;17.10;;;;;;5053240;28;19921;-87
2022/05/04 10:46:46;;;;;;;;;;;37.20;16.50;;;;;;5071968;28;19965;-87
2022/05/04 10:49:14;;;;;;;;;;;37.10;16.40;;;;;;5062675;28;20491;-86
2022/05/04 10:51:40;;;;;;;;;;;37.20;16.50;;;;;;5072072;28;19921;-88
2022/05/04 10:54:12;;;;;;;;;;;37.30;16.50;;;;;;5070904;28;20394;-87
2022/05/04 10:56:45;;;;;;;;;;;37.30;16.30;;;;;;5072058;28;19927;-87
2022/05/04 10:59:12;;;;;;;;;;;37.40;16.10;;;;;;5063350;28;20307;-87
2022/05/04 11:01:38;;;;;;;;;;;37.40;16.20;;;;;;5075418;28;19927;-87
2022/05/04 11:04:07;;;;;;;;;;;37.40;16.40;;;;;;5069146;28;19916;-87
2022/05/04 11:06:33;;;;;;;;;;;37.60;16.10;;;;;;5062587;28;19924;-88
2022/05/04 11:09:10;;;;;;;;;;;37.50;16.10;;;;;;5059562;28;20394;-87
2022/05/04 11:11:38;;;;;;;;;;;37.40;16.30;;;;;;5074637;28;19931;-88
2022/05/04 11:14:04;;;;;;;;;;;37.70;16.40;;;;;;5068097;28;19935;-87
2022/05/04 11:16:30;;;;;;;;;;;38.20;16.30;;;;;;5063736;28;19920;-88
2022/05/04 11:18:57;;;;;;;;;;;38.60;16.30;;;;;;5062265;28;19962;-88
2022/05/04 11:21:23;;;;;;;;;;;39.00;16.10;;;;;;5060287;28;19928;-88
2022/05/04 11:23:50;;;;;;;;;;;39.30;15.50;;;;;;5071093;28;19913;-88
2022/05/04 11:26:18;;;;;;;;;;;39.30;15.40;;;;;;5065171;28;19925;-88
2022/05/04 11:28:43;;;;;;;;;;;39.20;15.60;;;;;;5065153;28;20247;-87
2022/05/04 11:31:09;;;;;;;;;;;39.40;15.50;;;;;;5075696;28;19920;-88
2022/05/04 11:33:35;;;;;;;;;;;39.60;15.50;;;;;;5062178;28;19928;-89
2022/05/04 11:36:00;;;;;;;;;;;39.60;15.60;;;;;;5058369;28;20023;-88
2022/05/04 11:38:26;;;;;;;;;;;39.70;15.40;;;;;;5075743;28;19912;-88
2022/05/04 11:40:52;;;;;;;;;;;39.90;15.20;;;;;;5075009;28;19924;-88
2022/05/04 11:43:25;;;;;;;;;;;39.80;14.80;;;;;;5062457;28;19999;-88
2022/05/04 11:45:51;;;;;;;;;;;39.40;14.80;;;;;;5070316;28;19974;-88
2022/05/04 11:48:19;;;;;;;;;;;39.40;15.10;;;;;;5074244;28;20376;-88
2022/05/04 11:50:45;;;;;;;;;;;39.70;15.30;;;;;;5062777;28;19921;-88
2022/05/04 11:53:11;;;;;;;;;;;39.90;15.00;;;;;;5074331;28;19919;-88
2022/05/04 11:55:37;;;;;;;;;;;39.80;14.90;;;;;;5073905;28;20371;-88
2022/05/04 11:58:06;;;;;;;;;;;39.90;15.00;;;;;;5064150;28;19920;-88
2022/05/04 12:00:32;;;;;;;;;;;40.10;14.90;;;;;;5073999;28;19931;-87
2022/05/04 12:02:58;;;;;;;;;;;40.00;14.60;;;;;;5063542;28;19916;-88
2022/05/04 12:05:23;;;;;;;;;;;39.70;14.70;;;;;;5073771;28;19916;-88
2022/05/04 12:07:49;;;;;;;;;;;39.50;15.00;;;;;;5064232;28;19972;-87
2022/05/04 12:10:15;;;;;;;;;;;39.50;15.10;;;;;;5059523;28;19916;-87
2022/05/04 12:12:40;;;;;;;;;;;39.40;14.90;;;;;;5064502;28;19916;-88
2022/05/04 12:15:07;;;;;;;;;;;39.30;15.00;;;;;;5073524;28;19927;-88
2022/05/04 12:17:36;;;;;;;;;;;39.00;15.00;;;;;;5072582;28;20086;-87
2022/05/04 12:20:03;;;;;;;;;;;38.70;15.20;;;;;;5058000;28;20279;-88
2022/05/04 12:22:29;;;;;;;;;;;38.20;15.40;;;;;;5071202;28;19920;-86
2022/05/04 12:24:54;;;;;;;;;;;37.70;15.80;;;;;;5073073;28;19923;-88
2022/05/04 12:27:19;;;;;;;;;;;37.60;16.00;;;;;;5073184;28;20288;-87
2022/05/04 12:35:13;;;;;;;;;;;36.80;16.70;;;;;;5070048;28;19974;-87
2022/05/04 12:37:39;;;;;;;;;;;36.40;16.80;;;;;;5061336;28;20299;-88
2022/05/04 12:40:05;;;;;;;;;;;35.60;17.00;;;;;;5072997;28;19935;-87
2022/05/04 12:42:31;;;;;;;;;;;34.80;17.80;;;;;;5073106;28;19920;-87
2022/05/04 12:44:58;;;;;;;;;;;34.30;18.50;;;;;;5059893;28;20011;-87
2022/05/04 12:47:26;;;;;;;;;;;34.30;18.60;;;;;;5061473;28;19927;-87
2022/05/04 12:49:53;;;;;;;;;;;34.50;18.60;;;;;;5058012;28;20279;-88
2022/05/04 12:52:18;;;;;;;;;;;34.60;18.60;;;;;;5067786;28;19987;-87
2022/05/04 12:54:45;;;;;;;;;;;34.70;18.50;;;;;;5068430;28;19970;-87
2022/05/04 12:57:10;;;;;;;;;;;34.70;18.60;;;;;;5072797;28;19958;-88
2022/05/04 12:59:36;;;;;;;;;;;34.40;18.50;;;;;;5073872;28;20356;-87
2022/05/04 13:02:01;;;;;;;;;;;33.90;18.90;;;;;;5074544;28;19909;-86
2022/05/04 13:04:27;;;;;;;;;;;33.40;19.20;;;;;;5061611;28;19912;-87
2022/05/04 13:06:52;;;;;;;;;;;33.00;19.80;;;;;;5072216;28;19908;-86
2022/05/04 13:09:18;;;;;;;;;;;32.40;20.10;;;;;;5071893;28;20488;-86
2022/05/04 13:11:43;;;;;;;;;;;31.80;20.70;;;;;;5071621;28;20237;-86
2022/05/04 13:14:09;;;;;;;;;;;31.30;21.20;;;;;;5072286;28;19943;-87
2022/05/04 13:16:34;;;;;;;;;;;30.80;21.50;;;;;;5062664;28;19912;-86
2022/05/04 13:19:00;;;;;;;;;;;30.40;22.00;;;;;;5067445;28;20002;-87
2022/05/04 13:21:26;;;;;;;;;;;29.90;22.50;;;;;;5059136;28;19920;-87
2022/05/04 13:23:51;;;;;;;;;;;29.50;23.00;;;;;;5064161;28;19927;-87
2022/05/04 13:26:17;;;;;;;;;;;29.20;23.40;;;;;;5067238;28;19962;-87
2022/05/04 13:28:43;;;;;;;;;;;29.00;23.80;;;;;;5062222;28;20276;-86
2022/05/04 13:31:09;;;;;;;;;;;29.00;23.90;;;;;;5072715;28;19928;-87
2022/05/04 13:33:34;;;;;;;;;;;29.00;24.00;;;;;;5073009;28;19932;-86
2022/05/04 13:36:01;;;;;;;;;;;29.20;24.10;;;;;;5060554;28;19920;-86
2022/05/04 13:38:29;;;;;;;;;;;29.30;23.90;;;;;;5068823;28;19955;-87
2022/05/04 13:40:54;;;;;;;;;;;29.40;23.90;;;;;;5072318;28;19978;-86
2022/05/04 13:43:22;;;;;;;;;;;29.40;23.70;;;;;;5071799;28;19956;-87
2022/05/04 13:45:48;;;;;;;;;;;29.60;23.60;;;;;;5062806;28;20427;-87
2022/05/04 13:48:13;;;;;;;;;;;29.70;23.40;;;;;;5063082;28;20033;-86
2022/05/04 13:53:23;;;;;;;;;;;30.10;23.00;;;;;;5071550;28;20026;-87
2022/05/04 13:55:49;;;;;;;;;;;30.70;22.50;;;;;;5060469;28;19924;-87
2022/05/04 13:58:18;;;;;;;;;;;31.40;22.20;;;;;;5071182;28;20007;-87
2022/05/04 14:00:44;;;;;;;;;;;32.00;21.80;;;;;;5071403;28;19923;-87
2022/05/04 14:03:11;;;;;;;;;;;32.40;21.50;;;;;;5057201;28;19918;-87
2022/05/04 14:05:37;;;;;;;;;;;32.60;21.30;;;;;;5060457;28;19920;-87
2022/05/04 14:08:03;;;;;;;;;;;32.70;21.20;;;;;;5070323;28;20257;-86
2022/05/04 14:10:29;;;;;;;;;;;32.60;21.30;;;;;;5063963;28;20007;-87
2022/05/04 14:12:55;;;;;;;;;;;32.20;21.40;;;;;;5059726;28;19917;-86
2022/05/04 14:15:21;;;;;;;;;;;31.70;21.70;;;;;;5050084;28;19916;-87
2022/05/04 14:17:46;;;;;;;;;;;31.20;22.00;;;;;;5061585;28;19978;-87
2022/05/04 14:20:12;;;;;;;;;;;30.80;22.50;;;;;;5059717;28;19916;-86
2022/05/04 14:22:37;;;;;;;;;;;30.40;22.80;;;;;;5060421;28;19923;-86
2022/05/04 14:25:03;;;;;;;;;;;30.40;23.10;;;;;;5070171;28;20349;-86
2022/05/04 14:27:28;;;;;;;;;;;30.40;23.20;;;;;;5070537;28;19920;-87
2022/05/04 14:29:54;;;;;;;;;;;30.20;23.20;;;;;;5060849;28;19912;-87
2022/05/04 14:32:20;;;;;;;;;;;30.20;23.30;;;;;;5060162;28;19967;-86
2022/05/04 14:34:48;;;;;;;;;;;30.10;23.30;;;;;;5061728;28;19928;-87
2022/05/04 14:37:14;;;;;;;;;;;29.80;23.30;;;;;;5065323;28;19948;-87
2022/05/04 14:39:39;;;;;;;;;;;29.70;23.60;;;;;;5073259;28;20342;-86
2022/05/04 14:42:13;;;;;;;;;;;29.50;23.50;;;;;;5074137;28;19921;-87
2022/05/04 14:44:39;;;;;;;;;;;29.30;23.50;;;;;;5074056;28;19936;-87
2022/05/04 14:47:05;;;;;;;;;;;29.10;23.60;;;;;;5074497;28;19916;-87
2022/05/04 14:49:33;;;;;;;;;;;28.80;23.80;;;;;;5066506;28;20379;-88
2022/05/04 14:51:58;;;;;;;;;;;28.70;23.90;;;;;;5064614;28;19913;-86